createdAt,value
2022-11-19T00:01:14.485Z,1.17
2022-11-19T00:03:19.207Z,1.42
2022-11-19T00:05:21.057Z,1.23
2022-11-19T00:07:22.960Z,1.50
2022-11-19T00:09:24.783Z,1.50
2022-11-19T00:11:46.711Z,1.60
2022-11-19T00:13:50.424Z,2.10
2022-11-19T00:15:52.475Z,1.90
2022-11-19T00:17:54.223Z,1.70
2022-11-19T00:19:55.979Z,1.90
2022-11-19T00:21:57.698Z,1.77
2022-11-19T00:23:59.749Z,1.95
2022-11-19T00:26:10.747Z,2.08
2022-11-19T00:28:12.470Z,1.58
2022-11-19T00:30:45.934Z,2.00
2022-11-19T00:32:36.702Z,2.00
2022-11-19T00:34:38.434Z,2.25
2022-11-19T00:36:40.213Z,1.90
2022-11-19T00:38:42.649Z,1.77
2022-11-19T00:40:44.399Z,1.77
2022-11-19T00:43:06.096Z,2.00
2022-11-19T00:45:08.715Z,2.30
2022-11-19T00:49:12.099Z,1.83
2022-11-19T00:51:14.475Z,2.13
2022-11-19T00:53:16.183Z,2.50
2022-11-19T00:55:17.863Z,2.53
2022-11-19T00:57:19.617Z,2.42
2022-11-19T00:59:21.553Z,2.40
2022-11-19T01:01:25.139Z,2.38
2022-11-19T01:03:27.272Z,2.22
2022-11-19T01:05:28.988Z,2.20
2022-11-19T01:07:30.743Z,2.50
2022-11-19T01:09:32.556Z,2.80
2022-11-19T01:11:37.698Z,2.60
2022-11-19T01:13:39.815Z,2.47
2022-11-19T01:15:41.661Z,2.65
2022-11-19T01:17:43.344Z,2.80
2022-11-19T01:19:45.072Z,3.20
2022-11-19T01:21:46.898Z,2.90
2022-11-19T01:23:48.973Z,3.15
2022-11-19T01:25:50.892Z,3.42
2022-11-19T01:27:52.595Z,3.30
2022-11-19T01:29:54.323Z,3.13
2022-11-19T01:31:56.027Z,2.83
2022-11-19T01:33:59.499Z,2.97
2022-11-19T01:36:03.963Z,3.00
2022-11-19T01:38:06.335Z,2.70
2022-11-19T01:40:08.672Z,2.55
2022-11-19T01:42:47.051Z,3.28
2022-11-19T01:45:00.503Z,3.05
2022-11-19T01:47:02.183Z,2.60
2022-11-19T01:49:16.829Z,2.78
2022-11-19T01:51:21.828Z,2.88
2022-11-19T01:53:28.705Z,3.80
2022-11-19T01:55:30.715Z,3.63
2022-11-19T01:57:32.446Z,3.70
2022-11-19T01:59:34.360Z,3.90
2022-11-19T02:01:36.242Z,4.07
2022-11-19T02:03:39.850Z,3.42
2022-11-19T02:05:43.318Z,2.70
2022-11-19T02:07:51.633Z,3.35
2022-11-19T02:09:53.444Z,2.85
2022-11-19T02:12:16.102Z,2.87
2022-11-19T02:14:42.511Z,3.15
2022-11-19T02:16:56.327Z,2.20
2022-11-19T02:19:16.216Z,2.50
2022-11-19T02:21:28.320Z,2.60
2022-11-19T02:23:46.722Z,2.90
2022-11-19T02:26:42.010Z,3.20
2022-11-19T02:29:06.769Z,3.33
2022-11-19T02:31:22.602Z,3.03
2022-11-19T02:33:34.355Z,3.15
2022-11-19T02:36:09.883Z,3.35
2022-11-19T02:38:17.753Z,2.95
2022-11-19T02:40:29.920Z,3.53
2022-11-19T02:42:41.917Z,3.60
2022-11-19T02:45:15.750Z,3.27
2022-11-19T02:47:21.288Z,3.58
2022-11-19T02:49:27.653Z,3.40
2022-11-19T02:51:29.698Z,4.10
2022-11-19T02:53:31.910Z,3.88
2022-11-19T02:55:36.577Z,4.05
2022-11-19T02:57:38.656Z,3.33
2022-11-19T03:00:01.548Z,3.00
2022-11-19T03:02:25.613Z,2.60
2022-11-19T03:04:31.198Z,2.95
2022-11-19T03:06:34.653Z,2.80
2022-11-19T03:08:36.633Z,2.70
2022-11-19T03:11:01.566Z,2.58
2022-11-19T03:13:33.856Z,2.65
2022-11-19T03:16:05.956Z,2.58
2022-11-19T03:18:24.684Z,2.50
2022-11-19T03:20:41.733Z,2.28
2022-11-19T03:22:56.149Z,2.42
2022-11-19T03:25:09.317Z,2.50
2022-11-19T03:27:20.527Z,2.28
2022-11-19T03:29:25.211Z,2.20
2022-11-19T03:31:29.789Z,2.40
2022-11-19T03:33:36.025Z,2.60
2022-11-19T03:35:58.034Z,2.35
2022-11-19T03:38:03.522Z,2.30
2022-11-19T03:40:08.991Z,1.77
2022-11-19T03:42:13.260Z,1.92
2022-11-19T03:44:39.017Z,1.75
2022-11-19T03:46:42.329Z,1.70
2022-11-19T03:48:51.379Z,1.80
2022-11-19T03:50:58.021Z,1.60
2022-11-19T03:53:04.050Z,1.80
2022-11-19T03:55:06.640Z,1.60
2022-11-19T03:57:10.631Z,1.50
2022-11-19T03:59:13.413Z,1.45
2022-11-19T04:01:15.801Z,1.30
2022-11-19T04:03:17.622Z,1.23
2022-11-19T04:05:19.327Z,1.40
2022-11-19T04:07:22.791Z,1.80
2022-11-19T04:09:24.606Z,1.40
2022-11-19T04:13:26.966Z,1.25
2022-11-19T04:15:28.738Z,1.30
2022-11-19T04:17:30.452Z,1.33
2022-11-19T04:19:32.209Z,1.43
2022-11-19T04:21:33.940Z,1.20
2022-11-19T04:23:35.638Z,1.30
2022-11-19T04:25:37.952Z,1.40
2022-11-19T04:27:39.674Z,1.30
2022-11-19T04:29:41.376Z,1.20
2022-11-19T04:31:43.141Z,2.15
2022-11-19T04:33:44.867Z,2.33
2022-11-19T04:35:46.713Z,1.85
2022-11-19T04:37:49.121Z,1.58
2022-11-19T04:39:50.840Z,1.20
2022-11-19T04:41:52.637Z,1.77
2022-11-19T04:43:54.350Z,1.30
2022-11-19T04:45:56.088Z,1.45
2022-11-19T04:47:57.777Z,1.60
2022-11-19T04:49:59.529Z,1.30
2022-11-19T04:52:01.318Z,1.67
2022-11-19T04:54:03.709Z,1.43
2022-11-19T04:56:06.580Z,1.30
2022-11-19T04:58:08.483Z,1.40
2022-11-19T05:00:10.762Z,1.30
2022-11-19T05:02:12.523Z,1.40
2022-11-19T05:04:14.247Z,1.20
2022-11-19T05:06:16.160Z,1.30
2022-11-19T05:08:17.916Z,1.30
2022-11-19T05:10:19.714Z,1.50
2022-11-19T05:12:21.495Z,1.50
2022-11-19T05:14:28.840Z,1.53
2022-11-19T05:16:31.975Z,1.40
2022-11-19T05:18:33.866Z,1.27
2022-11-19T05:20:35.685Z,1.70
2022-11-19T05:22:37.728Z,1.17
2022-11-19T05:24:39.476Z,1.40
2022-11-19T05:26:41.135Z,1.20
2022-11-19T05:28:42.868Z,1.50
2022-11-19T05:30:44.598Z,1.37
2022-11-19T05:32:47.616Z,1.10
2022-11-19T05:34:49.401Z,1.20
2022-11-19T05:36:51.102Z,1.40
2022-11-19T05:38:52.934Z,1.30
2022-11-19T05:40:54.607Z,1.37
2022-11-19T05:42:56.341Z,1.33
2022-11-19T05:44:58.072Z,1.20
2022-11-19T05:46:59.900Z,1.42
2022-11-19T05:49:01.625Z,1.30
2022-11-19T05:51:03.412Z,1.27
2022-11-19T05:53:05.217Z,1.23
2022-11-19T05:55:07.299Z,1.55
2022-11-19T05:57:08.988Z,1.40
2022-11-19T05:59:10.675Z,1.45
2022-11-19T06:01:14.229Z,1.65
2022-11-19T06:03:16.028Z,1.25
2022-11-19T06:05:17.860Z,1.40
2022-11-19T06:07:19.619Z,1.30
2022-11-19T06:09:21.770Z,1.70
2022-11-19T06:11:42.175Z,1.73
2022-11-19T06:13:43.848Z,1.52
2022-11-19T06:15:45.556Z,1.58
2022-11-19T06:17:47.921Z,1.85
2022-11-19T06:19:49.629Z,1.45
2022-11-19T06:21:52.171Z,1.70
2022-11-19T06:23:53.864Z,1.60
2022-11-19T06:25:56.491Z,1.52
2022-11-19T06:29:59.940Z,1.70
2022-11-19T06:32:01.634Z,1.73
2022-11-19T06:34:03.622Z,1.97
2022-11-19T06:36:05.567Z,1.65
2022-11-19T06:38:07.261Z,2.00
2022-11-19T06:40:09.565Z,2.25
2022-11-19T06:42:30.173Z,2.60
2022-11-19T06:44:31.870Z,2.20
2022-11-19T06:46:33.648Z,2.75
2022-11-19T06:48:35.729Z,2.40
2022-11-19T06:50:37.471Z,2.35
2022-11-19T06:52:39.199Z,2.13
2022-11-19T06:54:43.250Z,2.00
2022-11-19T06:56:45.302Z,1.73
2022-11-19T06:58:46.982Z,1.75
2022-11-19T07:00:48.705Z,1.70
2022-11-19T07:02:50.395Z,1.42
2022-11-19T07:04:52.144Z,1.30
2022-11-19T07:06:53.828Z,1.30
2022-11-19T07:08:55.525Z,1.40
2022-11-19T07:10:57.260Z,1.40
2022-11-19T07:12:59.078Z,1.70
2022-11-19T07:15:04.250Z,1.37
2022-11-19T07:17:06.639Z,1.60
2022-11-19T07:19:09.178Z,1.47
2022-11-19T07:21:10.914Z,2.00
2022-11-19T07:23:13.167Z,1.93
2022-11-19T07:25:14.938Z,1.67
2022-11-19T07:27:17.303Z,1.67
2022-11-19T07:29:19.364Z,1.50
2022-11-19T07:31:21.428Z,2.05
2022-11-19T07:33:23.164Z,1.93
2022-11-19T07:35:24.980Z,2.00
2022-11-19T07:37:26.701Z,1.63
2022-11-19T07:39:28.411Z,1.83
2022-11-19T07:41:48.966Z,1.70
2022-11-19T07:43:50.853Z,1.52
2022-11-19T07:45:52.595Z,1.90
2022-11-19T07:47:54.323Z,1.43
2022-11-19T07:49:56.090Z,1.95
2022-11-19T07:51:57.843Z,1.65
2022-11-19T07:53:59.604Z,1.63
2022-11-19T07:56:02.062Z,1.83
2022-11-19T07:58:03.836Z,2.00
2022-11-19T08:00:07.135Z,1.37
2022-11-19T08:02:12.087Z,1.95
2022-11-19T08:04:13.983Z,1.65
2022-11-19T08:06:16.908Z,1.97
2022-11-19T08:08:18.663Z,1.50
2022-11-19T08:10:20.596Z,1.73
2022-11-19T08:12:22.308Z,2.30
2022-11-19T08:14:24.049Z,2.00
2022-11-19T08:16:44.669Z,1.75
2022-11-19T08:18:46.358Z,1.63
2022-11-19T08:20:48.696Z,2.00
2022-11-19T08:22:51.698Z,1.70
2022-11-19T08:24:53.395Z,1.60
2022-11-19T08:26:55.391Z,1.67
2022-11-19T08:28:57.112Z,2.28
2022-11-19T08:31:08.807Z,1.80
2022-11-19T08:33:10.507Z,1.63
2022-11-19T08:35:12.233Z,1.50
2022-11-19T08:37:14.037Z,1.70
2022-11-19T08:39:15.846Z,1.70
2022-11-19T08:41:36.346Z,1.80
2022-11-19T08:43:38.113Z,1.55
2022-11-19T08:45:39.923Z,1.70
2022-11-19T08:47:41.601Z,1.80
2022-11-19T08:49:43.586Z,1.38
2022-11-19T08:51:45.285Z,1.40
2022-11-19T08:53:46.999Z,1.40
2022-11-19T08:55:51.869Z,1.13
2022-11-19T08:58:02.742Z,2.95
2022-11-19T09:00:06.456Z,1.10
2022-11-19T09:02:10.831Z,1.58
2022-11-19T09:04:12.657Z,1.52
2022-11-19T09:06:14.546Z,1.33
2022-11-19T09:08:16.245Z,1.30
2022-11-19T09:10:18.598Z,1.40
2022-11-19T09:12:20.295Z,1.27
2022-11-19T09:14:22.258Z,1.30
2022-11-19T09:16:24.300Z,1.38
2022-11-19T09:18:26.032Z,1.30
2022-11-19T09:20:27.722Z,1.25
2022-11-19T09:22:31.330Z,1.40
2022-11-19T09:24:33.475Z,1.20
2022-11-19T09:26:35.591Z,1.17
2022-11-19T09:28:37.383Z,1.08
2022-11-19T09:30:39.099Z,1.25
2022-11-19T09:32:40.798Z,1.20
2022-11-19T09:34:42.562Z,1.15
2022-11-19T09:36:44.333Z,1.48
2022-11-19T09:38:46.907Z,0.90
2022-11-19T09:40:52.788Z,1.27
2022-11-19T09:43:08.444Z,0.90
2022-11-19T09:45:18.338Z,0.70
2022-11-19T09:47:54.710Z,0.80
2022-11-19T09:50:06.511Z,1.10
2022-11-19T09:52:14.892Z,1.10
2022-11-19T09:54:21.405Z,0.90
2022-11-19T09:56:32.984Z,0.80
2022-11-19T09:58:43.703Z,0.90
2022-11-19T10:00:45.591Z,1.02
2022-11-19T10:02:47.408Z,0.87
2022-11-19T10:04:51.148Z,0.80
2022-11-19T10:07:30.532Z,0.95
2022-11-19T10:09:56.259Z,0.80
2022-11-19T10:12:16.259Z,1.10
2022-11-19T10:14:49.319Z,0.98
2022-11-19T10:17:29.962Z,1.00
2022-11-19T10:19:51.240Z,0.90
2022-11-19T10:21:59.452Z,1.17
2022-11-19T10:24:22.209Z,1.00
2022-11-19T10:26:32.380Z,0.90
2022-11-19T10:28:38.201Z,1.08
2022-11-19T10:30:43.067Z,1.02
2022-11-19T10:32:55.794Z,1.10
2022-11-19T10:35:03.282Z,1.00
2022-11-19T10:37:17.900Z,1.00
2022-11-19T10:39:22.496Z,1.13
2022-11-19T10:41:45.499Z,1.00
2022-11-19T10:43:58.433Z,1.00
2022-11-19T10:46:02.726Z,0.80
2022-11-19T10:48:20.716Z,0.80
2022-11-19T10:50:24.353Z,0.90
2022-11-19T10:52:40.089Z,0.82
2022-11-19T10:54:42.118Z,0.98
2022-11-19T10:56:43.989Z,1.00
2022-11-19T10:58:58.370Z,1.05
2022-11-19T11:01:02.246Z,0.90
2022-11-19T11:03:06.021Z,1.00
2022-11-19T11:05:12.570Z,1.00
2022-11-19T11:07:14.445Z,1.10
2022-11-19T11:09:39.546Z,1.00
2022-11-19T11:12:00.117Z,1.17
2022-11-19T11:14:20.787Z,0.95
2022-11-19T11:16:46.643Z,1.05
2022-11-19T11:18:49.521Z,1.00
2022-11-19T11:20:52.360Z,1.08
2022-11-19T11:23:06.021Z,1.17
2022-11-19T11:25:21.682Z,1.17
2022-11-19T11:27:33.631Z,1.10
2022-11-19T11:29:35.332Z,1.10
2022-11-19T11:31:42.535Z,1.25
2022-11-19T11:33:56.147Z,1.20
2022-11-19T11:36:01.933Z,1.10
2022-11-19T11:38:04.345Z,0.85
2022-11-19T11:40:07.230Z,1.15
2022-11-19T11:42:17.226Z,1.23
2022-11-19T11:44:22.031Z,1.10
2022-11-19T11:46:23.776Z,1.20
2022-11-19T11:48:28.126Z,1.00
2022-11-19T11:50:29.936Z,1.25
2022-11-19T11:52:51.437Z,1.20
2022-11-19T11:54:59.267Z,1.58
2022-11-19T11:57:26.384Z,1.65
2022-11-19T11:59:31.018Z,1.95
2022-11-19T12:01:32.765Z,1.40
2022-11-19T12:03:41.451Z,1.00
2022-11-19T12:06:03.698Z,1.55
2022-11-19T12:08:11.120Z,1.40
2022-11-19T12:10:47.983Z,1.45
2022-11-19T12:12:58.176Z,1.70
2022-11-19T12:15:09.076Z,1.83
2022-11-19T12:17:30.409Z,1.63
2022-11-19T12:19:50.435Z,1.48
2022-11-19T12:21:59.211Z,1.30
2022-11-19T12:24:22.163Z,1.48
2022-11-19T12:26:33.766Z,1.40
2022-11-19T12:28:45.384Z,1.25
2022-11-19T12:31:18.505Z,1.40
2022-11-19T12:33:51.188Z,1.70
2022-11-19T12:36:36.644Z,1.40
2022-11-19T12:39:07.113Z,1.35
2022-11-19T12:41:41.087Z,1.45
2022-11-19T12:43:59.168Z,1.60
2022-11-19T12:46:23.502Z,1.60
2022-11-19T12:49:04.588Z,1.42
2022-11-19T12:51:12.842Z,1.40
2022-11-19T12:53:23.315Z,1.30
2022-11-19T12:55:43.902Z,1.52
2022-11-19T12:58:14.087Z,1.50
2022-11-19T13:00:24.472Z,1.52
2022-11-19T13:02:30.226Z,1.65
2022-11-19T13:04:45.852Z,1.20
2022-11-19T13:07:20.490Z,1.45
2022-11-19T13:09:30.978Z,1.10
2022-11-19T13:11:44.647Z,1.30
2022-11-19T13:13:50.398Z,1.40
2022-11-19T13:16:11.092Z,1.42
2022-11-19T13:18:16.651Z,1.40
2022-11-19T13:20:28.768Z,2.22
2022-11-19T13:22:37.212Z,1.60
2022-11-19T13:24:46.099Z,2.00
2022-11-19T13:26:48.294Z,1.90
2022-11-19T13:29:17.568Z,1.75
2022-11-19T13:31:34.400Z,1.33
2022-11-19T13:33:45.739Z,1.38
2022-11-19T13:36:05.828Z,1.20
2022-11-19T13:38:16.288Z,1.40
2022-11-19T13:40:24.340Z,1.10
2022-11-19T13:42:58.867Z,1.20
2022-11-19T13:45:15.632Z,1.45
2022-11-19T13:47:34.842Z,1.42
2022-11-19T13:49:43.049Z,1.25
2022-11-19T13:52:00.162Z,1.17
2022-11-19T13:54:04.477Z,0.98
2022-11-19T13:56:13.878Z,1.15
2022-11-19T13:58:22.822Z,1.40
2022-11-19T14:00:27.848Z,1.73
2022-11-19T14:03:20.061Z,1.48
2022-11-19T14:05:21.728Z,1.50
2022-11-19T14:07:47.590Z,1.60
2022-11-19T14:10:22.320Z,1.73
2022-11-19T14:12:44.862Z,2.00
2022-11-19T14:15:13.999Z,2.38
2022-11-19T14:18:07.955Z,2.28
2022-11-19T14:21:01.151Z,1.83
2022-11-19T14:23:21.719Z,2.00
2022-11-19T14:26:02.334Z,2.95
2022-11-19T14:28:43.611Z,2.20
2022-11-19T14:31:03.052Z,2.60
2022-11-19T14:33:43.147Z,3.17
2022-11-19T14:35:53.250Z,1.65
2022-11-19T14:38:21.303Z,2.15
2022-11-19T14:40:29.411Z,2.38
2022-11-19T14:42:31.116Z,1.30
2022-11-19T14:44:33.955Z,1.50
2022-11-19T14:46:44.651Z,1.90
2022-11-19T14:48:46.395Z,1.73
2022-11-19T14:51:01.180Z,1.80
2022-11-19T14:53:03.092Z,1.70
2022-11-19T14:55:13.748Z,1.50
2022-11-19T14:57:15.682Z,1.20
2022-11-19T14:59:17.364Z,1.77
2022-11-19T15:01:21.484Z,1.58
2022-11-19T15:03:27.705Z,1.50
2022-11-19T15:05:36.437Z,1.40
2022-11-19T15:07:56.183Z,1.30
2022-11-19T15:10:10.552Z,1.33
2022-11-19T15:12:12.288Z,1.40
2022-11-19T15:14:39.833Z,1.55
2022-11-19T15:16:51.981Z,1.50
2022-11-19T15:19:19.662Z,2.20
2022-11-19T15:22:06.732Z,1.60
2022-11-19T15:24:24.221Z,1.55
2022-11-19T15:26:36.619Z,1.25
2022-11-19T15:29:07.477Z,1.40
2022-11-19T15:31:36.041Z,1.40
2022-11-19T15:34:07.728Z,1.48
2022-11-19T15:36:41.221Z,1.60
2022-11-19T15:40:58.658Z,1.40
2022-11-19T15:43:18.972Z,1.67
2022-11-19T15:45:23.249Z,1.80
2022-11-19T15:47:39.184Z,1.63
2022-11-19T15:49:42.827Z,1.70
2022-11-19T15:52:03.643Z,2.35
2022-11-19T15:54:07.112Z,2.10
2022-11-19T15:56:12.103Z,1.83
2022-11-19T15:58:17.842Z,1.83
2022-11-19T16:00:21.924Z,1.70
2022-11-19T16:02:38.464Z,1.67
2022-11-19T16:04:40.688Z,2.05
2022-11-19T16:06:49.043Z,2.47
2022-11-19T16:08:55.657Z,2.55
2022-11-19T16:11:20.312Z,2.63
2022-11-19T16:13:43.367Z,2.97
2022-11-19T16:16:13.724Z,4.35
2022-11-19T16:18:17.928Z,3.03
2022-11-19T16:20:24.733Z,3.35
2022-11-19T16:22:27.044Z,2.88
2022-11-19T16:24:49.480Z,2.50
2022-11-19T16:26:51.276Z,2.70
2022-11-19T16:28:53.012Z,2.70
2022-11-19T16:31:03.557Z,3.13
2022-11-19T16:33:05.449Z,4.22
2022-11-19T16:35:31.614Z,3.03
2022-11-19T16:37:33.424Z,6.18
2022-11-19T16:39:36.982Z,25.33
2022-11-19T16:41:57.251Z,6.82
2022-11-19T16:43:59.389Z,9.75
2022-11-19T16:46:01.275Z,3.67
2022-11-19T16:48:04.013Z,3.28
2022-11-19T16:52:32.712Z,2.50
2022-11-19T16:54:51.340Z,3.00
2022-11-19T16:56:53.163Z,2.90
2022-11-19T16:58:58.620Z,2.60
2022-11-19T17:01:01.684Z,2.78
2022-11-19T17:03:21.605Z,2.67
2022-11-19T17:05:25.422Z,2.95
2022-11-19T17:07:27.981Z,2.88
2022-11-19T17:12:04.524Z,2.60
2022-11-19T17:14:35.762Z,2.65
2022-11-19T17:16:37.527Z,2.70
2022-11-19T17:18:42.687Z,2.78
2022-11-19T17:20:44.345Z,3.35
2022-11-19T17:22:46.123Z,2.20
2022-11-19T17:24:47.998Z,3.23
2022-11-19T17:26:51.389Z,2.53
2022-11-19T17:29:10.252Z,2.35
2022-11-19T17:31:26.763Z,3.00
2022-11-19T17:33:33.946Z,2.53
2022-11-19T17:35:45.447Z,3.08
2022-11-19T17:37:47.229Z,3.05
2022-11-19T17:39:48.927Z,2.87
2022-11-19T17:42:12.004Z,2.83
2022-11-19T17:44:31.734Z,2.67
2022-11-19T17:46:33.456Z,2.88
2022-11-19T17:48:38.169Z,3.15
2022-11-19T17:50:39.897Z,2.22
2022-11-19T17:52:41.646Z,2.88
2022-11-19T17:54:46.325Z,2.93
2022-11-19T17:56:48.159Z,3.75
2022-11-19T17:58:50.028Z,3.20
2022-11-19T18:00:52.206Z,2.75
2022-11-19T18:02:55.920Z,4.35
2022-11-19T18:04:59.585Z,3.58
2022-11-19T18:13:51.042Z,2.88
2022-11-19T18:15:52.896Z,2.97
2022-11-19T18:17:54.668Z,2.80
2022-11-19T18:19:56.432Z,2.00
2022-11-19T18:21:58.266Z,3.70
2022-11-19T18:24:00.111Z,2.57
2022-11-19T18:26:04.416Z,2.67
2022-11-19T18:28:06.200Z,2.25
2022-11-19T18:30:08.541Z,2.28
2022-11-19T18:32:17.092Z,2.80
2022-11-19T18:34:23.530Z,2.80
2022-11-19T18:36:25.555Z,2.88
2022-11-19T18:38:27.667Z,2.70
2022-11-19T18:40:30.849Z,2.45
2022-11-19T18:42:32.664Z,2.20
2022-11-19T18:44:34.388Z,2.50
2022-11-19T18:46:36.252Z,2.60
2022-11-19T18:48:38.079Z,2.45
2022-11-19T18:50:39.821Z,2.43
2022-11-19T18:52:41.639Z,2.60
2022-11-19T18:54:43.907Z,3.03
2022-11-19T18:56:45.719Z,2.88
2022-11-19T18:58:47.648Z,2.30
2022-11-19T19:00:49.362Z,2.10
2022-11-19T19:02:51.216Z,2.17
2022-11-19T19:04:52.957Z,2.03
2022-11-19T19:06:54.877Z,2.08
2022-11-19T19:08:56.692Z,1.98
2022-11-19T19:11:17.476Z,2.70
2022-11-19T19:13:19.201Z,3.60
2022-11-19T19:15:20.935Z,5.20
2022-11-19T19:17:22.726Z,2.92
2022-11-19T19:19:24.571Z,2.60
2022-11-19T19:21:26.298Z,2.08
2022-11-19T19:23:28.283Z,2.20
2022-11-19T19:25:30.347Z,2.10
2022-11-19T19:27:32.514Z,2.90
2022-11-19T19:29:34.410Z,2.92
2022-11-19T19:31:36.433Z,2.83
2022-11-19T19:33:38.175Z,3.30
2022-11-19T19:35:41.083Z,3.13
2022-11-19T19:37:42.866Z,2.90
2022-11-19T19:39:44.746Z,2.90
2022-11-19T19:41:46.830Z,3.40
2022-11-19T19:43:49.860Z,5.65
2022-11-19T19:45:51.594Z,6.18
2022-11-19T19:47:53.332Z,5.93
2022-11-19T19:49:55.159Z,4.95
2022-11-19T19:51:56.851Z,4.78
2022-11-19T19:53:59.020Z,6.20
2022-11-19T19:56:10.249Z,7.10
2022-11-19T19:58:12.014Z,7.78
2022-11-19T20:00:14.274Z,6.87
2022-11-19T20:02:16.077Z,8.02
2022-11-19T20:04:17.889Z,7.15
2022-11-19T20:06:22.053Z,6.35
2022-11-19T20:08:23.820Z,6.72
2022-11-19T20:10:25.568Z,6.27
2022-11-19T20:12:47.429Z,5.53
2022-11-19T20:14:49.185Z,5.93
2022-11-19T20:16:51.818Z,5.20
2022-11-19T20:18:54.330Z,5.90
2022-11-19T20:21:02.792Z,5.47
2022-11-19T20:23:04.525Z,6.30
2022-11-19T20:25:06.796Z,7.15
2022-11-19T20:27:08.486Z,6.03
2022-11-19T20:29:13.300Z,7.90
2022-11-19T20:31:19.502Z,6.85
2022-11-19T20:33:22.929Z,6.30
2022-11-19T20:35:24.798Z,5.78
2022-11-19T20:37:26.567Z,5.90
2022-11-19T20:39:28.382Z,4.60
2022-11-19T20:41:49.008Z,4.77
2022-11-19T20:44:09.548Z,4.50
2022-11-19T20:46:13.882Z,4.35
2022-11-19T20:48:15.600Z,3.85
2022-11-19T20:50:17.805Z,4.13
2022-11-19T20:52:21.431Z,4.10
2022-11-19T20:54:24.259Z,6.35
2022-11-19T20:56:26.106Z,5.72
2022-11-19T20:58:28.227Z,8.07
2022-11-19T21:00:30.017Z,8.73
2022-11-19T21:02:31.849Z,5.70
2022-11-19T21:04:36.486Z,4.43
2022-11-19T21:06:38.832Z,4.32
2022-11-19T21:08:41.180Z,3.95
2022-11-19T21:10:43.248Z,4.03
2022-11-19T21:13:01.259Z,4.72
2022-11-19T21:15:04.004Z,4.65
2022-11-19T21:19:10.255Z,4.57
2022-11-19T21:21:15.166Z,4.95
2022-11-19T21:23:17.833Z,4.32
2022-11-19T21:27:21.240Z,4.47
2022-11-19T21:29:23.340Z,4.47
2022-11-19T21:31:42.180Z,4.60
2022-11-19T21:33:44.560Z,5.47
2022-11-19T21:35:46.346Z,8.82
2022-11-19T21:37:48.295Z,6.10
2022-11-19T21:39:50.095Z,6.32
2022-11-19T21:41:51.870Z,6.70
2022-11-19T21:43:53.698Z,5.07
2022-11-19T21:45:55.791Z,4.72
2022-11-19T21:47:57.533Z,4.22
2022-11-19T21:50:01.257Z,5.30
2022-11-19T21:52:03.443Z,4.55
2022-11-19T21:54:05.358Z,4.60
2022-11-19T21:56:07.648Z,4.88
2022-11-19T21:58:11.489Z,4.53
2022-11-19T22:00:13.672Z,4.47
2022-11-19T22:02:15.433Z,4.32
2022-11-19T22:04:17.193Z,5.70
2022-11-19T22:06:18.974Z,4.33
2022-11-19T22:08:20.711Z,5.50
2022-11-19T22:10:22.512Z,4.15
2022-11-19T22:12:24.752Z,4.63
2022-11-19T22:14:26.527Z,4.22
2022-11-19T22:16:34.155Z,3.77
2022-11-19T22:18:36.078Z,3.42
2022-11-19T22:20:42.959Z,3.87
2022-11-19T22:22:47.344Z,4.25
2022-11-19T22:24:51.241Z,4.00
2022-11-19T22:26:53.041Z,3.55
2022-11-19T22:28:55.580Z,3.50
2022-11-19T22:30:57.304Z,4.05
2022-11-19T22:32:59.059Z,4.00
2022-11-19T22:35:00.880Z,3.43
2022-11-19T22:37:05.307Z,4.13
2022-11-19T22:39:07.437Z,3.10
2022-11-19T22:41:17.467Z,3.28
2022-11-19T22:43:23.112Z,3.10
2022-11-19T22:45:24.956Z,3.38
2022-11-19T22:47:26.663Z,3.00
2022-11-19T22:49:28.425Z,2.88
2022-11-19T22:51:30.189Z,2.78
2022-11-19T22:53:33.577Z,3.57
2022-11-19T22:55:38.541Z,2.80
2022-11-19T22:57:40.280Z,2.75
2022-11-19T22:59:42.170Z,2.70
2022-11-19T23:01:43.937Z,2.58
2022-11-19T23:03:46.235Z,2.57
2022-11-19T23:05:55.546Z,2.67
2022-11-19T23:07:57.340Z,2.50
2022-11-19T23:09:59.423Z,2.57
2022-11-19T23:12:19.585Z,2.35
2022-11-19T23:14:21.384Z,2.30
2022-11-19T23:16:23.093Z,2.50
2022-11-19T23:18:24.814Z,2.80
2022-11-19T23:20:26.526Z,2.50
2022-11-19T23:22:28.243Z,2.40
2022-11-19T23:24:29.985Z,2.30
2022-11-19T23:26:33.022Z,2.20
2022-11-19T23:28:36.391Z,2.35
2022-11-19T23:30:38.083Z,2.28
2022-11-19T23:32:40.841Z,2.63
2022-11-19T23:34:42.570Z,1.98
2022-11-19T23:36:44.376Z,2.38
2022-11-19T23:38:46.161Z,2.83
2022-11-19T23:40:48.047Z,2.53
2022-11-19T23:42:52.140Z,2.53
2022-11-19T23:44:53.995Z,2.50
2022-11-19T23:46:55.754Z,2.22
2022-11-19T23:48:58.892Z,2.43
2022-11-19T23:51:14.816Z,2.22
2022-11-19T23:53:16.565Z,2.70
2022-11-19T23:55:18.284Z,2.47
2022-11-19T23:57:20.116Z,2.10
2022-11-19T23:59:25.667Z,2.10
